createdAt,value
2023-02-09T00:02:20.030Z,-5.24
2023-02-09T00:04:50.073Z,-5.27
2023-02-09T00:07:17.059Z,-5.30
2023-02-09T00:09:45.626Z,-5.32
2023-02-09T00:12:34.643Z,-5.36
2023-02-09T00:15:01.830Z,-5.39
2023-02-09T00:17:28.929Z,-5.42
2023-02-09T00:19:57.655Z,-5.46
2023-02-09T00:22:27.315Z,-5.50
2023-02-09T00:24:57.049Z,-5.53
2023-02-09T00:27:24.407Z,-5.56
2023-02-09T00:29:53.989Z,-5.61
2023-02-09T00:32:20.916Z,-5.64
2023-02-09T00:34:47.994Z,-5.67
2023-02-09T00:37:18.268Z,-5.69
2023-02-09T00:39:46.189Z,-5.69
2023-02-09T00:42:14.007Z,-5.68
2023-02-09T00:44:42.797Z,-5.68
2023-02-09T00:47:10.725Z,-5.69
2023-02-09T00:49:40.232Z,-5.70
2023-02-09T00:52:09.832Z,-5.72
2023-02-09T00:54:37.170Z,-5.74
2023-02-09T00:57:05.627Z,-5.77
2023-02-09T00:59:35.431Z,-5.79
2023-02-09T01:02:03.039Z,-5.81
2023-02-09T01:04:30.276Z,-5.84
2023-02-09T01:06:57.262Z,-5.87
2023-02-09T01:09:27.946Z,-5.91
2023-02-09T01:11:55.080Z,-5.95
2023-02-09T01:14:25.551Z,-5.99
2023-02-09T01:16:52.769Z,-6.04
2023-02-09T01:19:19.939Z,-6.10
2023-02-09T01:21:50.261Z,-6.13
2023-02-09T01:24:17.602Z,-6.15
2023-02-09T01:26:45.025Z,-6.17
2023-02-09T01:29:23.483Z,-6.17
2023-02-09T01:31:50.738Z,-6.18
2023-02-09T01:34:21.032Z,-6.19
2023-02-09T01:36:49.478Z,-6.21
2023-02-09T01:39:17.299Z,-6.22
2023-02-09T01:41:45.101Z,-6.23
2023-02-09T01:44:42.684Z,-6.25
2023-02-09T01:47:16.229Z,-6.26
2023-02-09T01:49:45.215Z,-6.26
2023-02-09T01:52:18.803Z,-6.25
2023-02-09T01:54:50.906Z,-6.25
2023-02-09T01:57:21.404Z,-6.26
2023-02-09T01:59:55.314Z,-6.27
2023-02-09T02:02:23.634Z,-6.29
2023-02-09T02:04:51.508Z,-6.31
2023-02-09T02:07:26.410Z,-6.32
2023-02-09T02:09:54.537Z,-6.33
2023-02-09T02:12:21.972Z,-6.34
2023-02-09T02:14:48.995Z,-6.34
2023-02-09T02:17:29.199Z,-6.33
2023-02-09T02:20:29.175Z,-6.30
2023-02-09T02:23:06.436Z,-6.25
2023-02-09T02:26:08.753Z,-6.20
2023-02-09T02:29:07.636Z,-6.20
2023-02-09T02:32:11.423Z,-6.20
2023-02-09T02:34:47.111Z,-6.19
2023-02-09T02:37:25.520Z,-6.18
2023-02-09T02:40:00.218Z,-6.18
2023-02-09T02:42:54.955Z,-6.16
2023-02-09T02:45:30.215Z,-6.14
2023-02-09T02:48:08.222Z,-6.12
2023-02-09T02:50:46.247Z,-6.10
2023-02-09T02:53:19.092Z,-6.06
2023-02-09T02:56:01.139Z,-6.05
2023-02-09T02:58:30.395Z,-6.03
2023-02-09T03:01:01.450Z,-5.99
2023-02-09T03:03:33.764Z,-5.95
2023-02-09T03:06:04.136Z,-5.94
2023-02-09T03:08:31.386Z,-5.92
2023-02-09T03:10:58.518Z,-5.92
2023-02-09T03:13:54.095Z,-5.92
2023-02-09T03:16:28.713Z,-5.92
2023-02-09T03:19:11.167Z,-5.93
2023-02-09T03:21:47.138Z,-5.94
2023-02-09T03:24:25.885Z,-5.96
2023-02-09T03:26:56.810Z,-5.96
2023-02-09T03:29:29.383Z,-5.97
2023-02-09T03:31:57.412Z,-5.95
2023-02-09T03:34:24.667Z,-5.95
2023-02-09T03:36:56.303Z,-5.96
2023-02-09T03:39:23.363Z,-5.99
2023-02-09T03:41:50.320Z,-6.01
2023-02-09T03:44:29.776Z,-6.02
2023-02-09T03:46:58.458Z,-6.02
2023-02-09T03:49:30.428Z,-6.04
2023-02-09T03:52:01.934Z,-6.07
2023-02-09T03:54:40.774Z,-6.11
2023-02-09T03:57:08.431Z,-6.13
2023-02-09T03:59:37.813Z,-6.15
2023-02-09T04:02:10.351Z,-6.17
2023-02-09T04:04:57.621Z,-6.18
2023-02-09T04:07:39.103Z,-6.17
2023-02-09T04:10:26.267Z,-6.18
2023-02-09T04:12:53.147Z,-6.18
2023-02-09T04:15:22.368Z,-6.20
2023-02-09T04:17:52.575Z,-6.19
2023-02-09T04:20:19.894Z,-6.19
2023-02-09T04:22:49.760Z,-6.19
2023-02-09T04:25:17.126Z,-6.20
2023-02-09T04:27:47.256Z,-6.21
2023-02-09T04:30:19.322Z,-6.23
2023-02-09T04:32:46.292Z,-6.23
2023-02-09T04:35:13.447Z,-6.22
2023-02-09T04:37:40.438Z,-6.22
2023-02-09T04:40:08.975Z,-6.23
2023-02-09T04:42:36.061Z,-6.24
2023-02-09T04:45:03.319Z,-6.25
2023-02-09T04:47:30.231Z,-6.26
2023-02-09T04:49:57.212Z,-6.26
2023-02-09T04:52:24.383Z,-6.27
2023-02-09T04:54:51.471Z,-6.28
2023-02-09T04:57:38.558Z,-6.28
2023-02-09T05:00:06.233Z,-6.30
2023-02-09T05:02:35.708Z,-6.36
2023-02-09T05:05:03.393Z,-6.39
2023-02-09T05:07:30.542Z,-6.43
2023-02-09T05:09:57.599Z,-6.46
2023-02-09T05:12:24.695Z,-6.52
2023-02-09T05:14:51.751Z,-6.56
2023-02-09T05:17:21.163Z,-6.59
2023-02-09T05:19:51.914Z,-6.61
2023-02-09T05:22:19.214Z,-6.62
2023-02-09T05:24:46.223Z,-6.63
2023-02-09T05:27:13.576Z,-6.65
2023-02-09T05:29:40.748Z,-6.67
2023-02-09T05:32:08.149Z,-6.70
2023-02-09T05:34:35.463Z,-6.73
2023-02-09T05:37:02.832Z,-6.76
2023-02-09T05:39:32.918Z,-6.79
2023-02-09T05:42:18.028Z,-6.81
2023-02-09T05:44:45.794Z,-6.84
2023-02-09T05:47:18.139Z,-6.85
2023-02-09T05:49:54.776Z,-6.88
2023-02-09T05:52:22.745Z,-6.88
2023-02-09T05:54:51.339Z,-6.92
2023-02-09T05:57:19.058Z,-6.93
2023-02-09T05:59:46.158Z,-6.95
2023-02-09T06:02:13.597Z,-6.96
2023-02-09T06:04:40.844Z,-6.98
2023-02-09T06:07:09.931Z,-6.99
2023-02-09T06:09:37.995Z,-7.00
2023-02-09T06:12:05.220Z,-7.01
2023-02-09T06:14:32.315Z,-7.03
2023-02-09T06:16:59.390Z,-7.04
2023-02-09T06:19:26.549Z,-7.03
2023-02-09T06:21:54.300Z,-7.02
2023-02-09T06:24:21.455Z,-7.02
2023-02-09T06:26:48.497Z,-7.01
2023-02-09T06:29:15.749Z,-7.00
2023-02-09T06:31:42.954Z,-6.99
2023-02-09T06:34:10.902Z,-6.96
2023-02-09T06:36:38.026Z,-6.94
2023-02-09T06:39:07.769Z,-6.95
2023-02-09T06:41:34.710Z,-6.94
2023-02-09T06:44:02.270Z,-6.92
2023-02-09T06:46:33.682Z,-6.86
2023-02-09T06:49:00.728Z,-6.75
2023-02-09T06:51:28.199Z,-6.65
2023-02-09T06:53:55.352Z,-6.52
2023-02-09T06:56:24.949Z,-6.40
2023-02-09T06:58:52.563Z,-6.20
2023-02-09T07:01:22.659Z,-5.87
2023-02-09T07:03:49.597Z,-5.51
2023-02-09T07:06:21.355Z,-5.07
2023-02-09T07:08:49.817Z,-4.64
2023-02-09T07:11:18.921Z,-4.24
2023-02-09T07:13:47.003Z,-3.90
2023-02-09T07:16:14.371Z,-3.55
2023-02-09T07:18:41.521Z,-3.28
2023-02-09T07:21:12.628Z,-3.00
2023-02-09T07:23:40.228Z,-2.74
2023-02-09T07:26:09.161Z,-2.41
2023-02-09T07:28:47.918Z,-1.99
2023-02-09T07:31:35.803Z,-1.52
2023-02-09T07:34:05.924Z,-1.25
2023-02-09T07:36:53.041Z,-0.96
2023-02-09T07:39:39.209Z,-0.78
2023-02-09T07:42:09.395Z,-0.67
2023-02-09T07:44:51.529Z,-0.59
2023-02-09T07:47:21.285Z,-0.69
2023-02-09T07:49:48.379Z,-0.79
2023-02-09T07:52:15.711Z,-0.74
2023-02-09T07:54:42.912Z,-0.64
2023-02-09T07:57:10.094Z,-0.53
2023-02-09T07:59:37.747Z,-0.42
2023-02-09T08:02:05.767Z,-0.21
2023-02-09T08:04:36.301Z,0.03
2023-02-09T08:07:05.818Z,0.22
2023-02-09T08:09:35.542Z,0.28
2023-02-09T08:12:06.457Z,0.37
2023-02-09T08:14:39.974Z,0.59
2023-02-09T08:17:24.343Z,0.88
2023-02-09T08:19:54.048Z,1.13
2023-02-09T08:22:22.784Z,1.46
2023-02-09T08:24:50.471Z,1.83
2023-02-09T08:27:17.617Z,2.25
2023-02-09T08:29:44.662Z,2.56
2023-02-09T08:32:11.749Z,2.87
2023-02-09T08:34:38.811Z,3.23
2023-02-09T08:37:14.261Z,3.51
2023-02-09T08:39:41.134Z,3.85
2023-02-09T08:42:08.304Z,4.13
2023-02-09T08:44:35.687Z,4.34
2023-02-09T08:47:02.962Z,4.47
2023-02-09T08:49:30.366Z,4.67
2023-02-09T08:51:57.633Z,4.98
2023-02-09T08:54:25.511Z,5.25
2023-02-09T08:56:52.613Z,5.43
2023-02-09T08:59:20.213Z,5.53
2023-02-09T09:01:47.272Z,5.71
2023-02-09T09:04:14.303Z,5.82
2023-02-09T09:06:44.169Z,6.04
2023-02-09T09:09:11.856Z,6.34
2023-02-09T09:11:39.221Z,6.54
2023-02-09T09:14:06.439Z,6.64
2023-02-09T09:16:33.393Z,6.75
2023-02-09T09:19:00.351Z,6.80
2023-02-09T09:21:27.608Z,6.86
2023-02-09T09:23:54.788Z,6.93
2023-02-09T09:26:21.906Z,6.92
2023-02-09T09:28:52.105Z,7.02
2023-02-09T09:31:20.186Z,7.09
2023-02-09T09:33:47.861Z,7.09
2023-02-09T09:36:15.964Z,7.13
2023-02-09T09:38:45.818Z,7.07
2023-02-09T09:41:23.856Z,7.06
2023-02-09T09:43:52.034Z,6.98
2023-02-09T09:46:22.124Z,6.80
2023-02-09T09:48:52.819Z,6.52
2023-02-09T09:51:25.888Z,6.37
2023-02-09T09:53:56.012Z,6.37
2023-02-09T09:56:25.020Z,6.17
2023-02-09T09:58:54.464Z,5.98
2023-02-09T10:01:23.694Z,6.08
2023-02-09T10:03:50.673Z,6.08
2023-02-09T10:06:20.829Z,5.93
2023-02-09T10:08:53.961Z,5.75
2023-02-09T10:11:28.901Z,5.62
2023-02-09T10:13:57.509Z,5.43
2023-02-09T10:16:27.393Z,5.30
2023-02-09T10:18:56.129Z,5.24
2023-02-09T10:21:25.177Z,5.18
2023-02-09T10:24:04.805Z,5.31
2023-02-09T10:26:33.793Z,5.25
2023-02-09T10:29:08.451Z,4.88
2023-02-09T10:31:40.024Z,4.66
2023-02-09T10:34:14.825Z,4.53
2023-02-09T10:36:51.569Z,4.40
2023-02-09T10:39:23.615Z,4.18
2023-02-09T10:41:53.281Z,4.04
2023-02-09T10:44:25.179Z,4.05
2023-02-09T10:47:09.777Z,4.06
2023-02-09T10:49:40.050Z,3.94
2023-02-09T10:52:18.436Z,3.77
2023-02-09T10:54:48.964Z,3.64
2023-02-09T10:57:26.238Z,3.39
2023-02-09T10:59:58.987Z,3.20
2023-02-09T11:02:43.197Z,3.09
2023-02-09T11:05:29.257Z,3.00
2023-02-09T11:08:00.165Z,3.02
2023-02-09T11:10:30.716Z,3.12
2023-02-09T11:12:58.417Z,3.34
2023-02-09T11:15:31.257Z,3.43
2023-02-09T11:18:06.921Z,3.48
2023-02-09T11:20:41.488Z,3.51
2023-02-09T11:23:37.112Z,3.61
2023-02-09T11:26:10.367Z,3.77
2023-02-09T11:28:48.897Z,3.87
2023-02-09T11:31:31.989Z,4.06
2023-02-09T11:34:07.106Z,4.14
2023-02-09T11:36:47.132Z,4.27
2023-02-09T11:39:20.378Z,4.37
2023-02-09T11:42:13.785Z,4.47
2023-02-09T11:44:47.778Z,4.65
2023-02-09T11:47:20.682Z,4.82
2023-02-09T11:49:50.334Z,4.94
2023-02-09T11:52:22.191Z,4.95
2023-02-09T11:54:55.269Z,4.86
2023-02-09T11:57:32.722Z,4.75
2023-02-09T12:00:02.644Z,4.71
2023-02-09T12:02:46.422Z,4.65
2023-02-09T12:05:20.348Z,4.57
2023-02-09T12:08:07.296Z,4.59
2023-02-09T12:10:42.608Z,4.52
2023-02-09T12:13:23.378Z,4.41
2023-02-09T12:16:05.885Z,4.33
2023-02-09T12:18:36.544Z,4.28
2023-02-09T12:21:06.407Z,4.29
2023-02-09T12:23:46.766Z,4.35
2023-02-09T12:26:41.334Z,4.14
2023-02-09T12:29:34.000Z,3.93
2023-02-09T12:32:42.983Z,3.71
2023-02-09T12:35:28.510Z,3.64
2023-02-09T12:38:10.288Z,3.52
2023-02-09T12:40:39.878Z,3.43
2023-02-09T12:43:13.333Z,3.37
2023-02-09T12:45:41.885Z,3.32
2023-02-09T12:48:19.427Z,3.24
2023-02-09T12:50:54.229Z,3.14
2023-02-09T12:53:50.814Z,3.04
2023-02-09T12:56:32.832Z,2.96
2023-02-09T12:59:14.710Z,2.99
2023-02-09T13:02:13.186Z,3.04
2023-02-09T13:04:45.130Z,3.03
2023-02-09T13:07:23.847Z,3.04
2023-02-09T13:09:53.289Z,3.11
2023-02-09T13:12:25.138Z,3.16
2023-02-09T13:14:53.740Z,3.16
2023-02-09T13:17:39.492Z,3.15
2023-02-09T13:20:29.329Z,3.16
2023-02-09T13:23:14.776Z,3.19
2023-02-09T13:25:44.263Z,3.19
2023-02-09T13:28:18.241Z,3.20
2023-02-09T13:30:46.234Z,3.24
2023-02-09T13:33:30.795Z,3.32
2023-02-09T13:36:19.621Z,3.41
2023-02-09T13:38:54.540Z,3.40
2023-02-09T13:41:33.222Z,3.42
2023-02-09T13:44:03.011Z,3.41
2023-02-09T13:46:35.321Z,3.42
2023-02-09T13:49:16.890Z,3.44
2023-02-09T13:51:44.229Z,3.42
2023-02-09T13:54:21.363Z,3.40
2023-02-09T13:56:48.815Z,3.36
2023-02-09T13:59:17.843Z,3.40
2023-02-09T14:01:46.480Z,3.38
2023-02-09T14:04:17.375Z,3.35
2023-02-09T14:06:48.635Z,3.29
2023-02-09T14:09:25.117Z,3.26
2023-02-09T14:11:57.999Z,3.19
2023-02-09T14:14:51.811Z,3.18
2023-02-09T14:17:27.349Z,3.20
2023-02-09T14:19:55.552Z,3.16
2023-02-09T14:22:37.144Z,3.08
2023-02-09T14:25:29.618Z,3.03
2023-02-09T14:27:58.353Z,2.96
2023-02-09T14:30:27.952Z,2.92
2023-02-09T14:33:00.365Z,2.87
2023-02-09T14:35:42.145Z,2.82
2023-02-09T14:38:36.310Z,2.76
2023-02-09T14:41:34.635Z,2.66
2023-02-09T14:44:22.694Z,2.59
2023-02-09T14:47:01.929Z,2.54
2023-02-09T14:49:30.043Z,2.49
2023-02-09T14:52:05.472Z,2.42
2023-02-09T14:54:52.969Z,2.36
2023-02-09T14:57:21.387Z,2.32
2023-02-09T14:59:59.023Z,2.25
2023-02-09T15:02:28.332Z,2.17
2023-02-09T15:04:56.527Z,2.09
2023-02-09T15:07:30.058Z,2.03
2023-02-09T15:09:57.164Z,1.99
2023-02-09T15:12:27.537Z,1.94
2023-02-09T15:14:58.844Z,1.89
2023-02-09T15:17:30.312Z,1.81
2023-02-09T15:19:58.415Z,1.73
2023-02-09T15:22:26.175Z,1.65
2023-02-09T15:24:54.667Z,1.56
2023-02-09T15:27:33.891Z,1.47
2023-02-09T15:30:04.384Z,1.38
2023-02-09T15:32:32.230Z,1.30
2023-02-09T15:34:59.348Z,1.20
2023-02-09T15:37:29.547Z,1.12
2023-02-09T15:40:00.039Z,1.04
2023-02-09T15:42:47.241Z,0.97
2023-02-09T15:45:43.823Z,0.89
2023-02-09T15:48:11.663Z,0.82
2023-02-09T15:50:45.571Z,0.78
2023-02-09T15:53:18.798Z,0.72
2023-02-09T15:55:58.743Z,0.66
2023-02-09T15:58:35.220Z,0.60
2023-02-09T16:01:23.642Z,0.55
2023-02-09T16:04:13.395Z,0.50
2023-02-09T16:06:47.599Z,0.44
2023-02-09T16:09:20.298Z,0.41
2023-02-09T16:11:48.568Z,0.36
2023-02-09T16:14:20.525Z,0.32
2023-02-09T16:16:48.326Z,0.27
2023-02-09T16:19:16.942Z,0.23
2023-02-09T16:21:47.329Z,0.20
2023-02-09T16:24:23.108Z,0.17
2023-02-09T16:26:50.369Z,0.13
2023-02-09T16:29:19.961Z,0.11
2023-02-09T16:31:46.944Z,0.08
2023-02-09T16:34:15.670Z,0.06
2023-02-09T16:36:44.181Z,0.03
2023-02-09T16:39:19.710Z,0.00
2023-02-09T16:41:50.816Z,-0.03
2023-02-09T16:44:21.338Z,-0.07
2023-02-09T16:46:49.784Z,-0.10
2023-02-09T16:49:28.237Z,-0.13
2023-02-09T16:51:56.651Z,-0.17
2023-02-09T16:54:24.330Z,-0.19
2023-02-09T16:56:54.493Z,-0.22
2023-02-09T16:59:21.972Z,-0.24
2023-02-09T17:01:49.492Z,-0.26
2023-02-09T17:04:16.700Z,-0.28
2023-02-09T17:06:45.123Z,-0.30
2023-02-09T17:09:17.793Z,-0.33
2023-02-09T17:11:45.233Z,-0.36
2023-02-09T17:14:12.802Z,-0.39
2023-02-09T17:16:43.492Z,-0.41
2023-02-09T17:19:18.194Z,-0.45
2023-02-09T17:21:45.663Z,-0.49
2023-02-09T17:24:17.898Z,-0.52
2023-02-09T17:26:45.632Z,-0.56
2023-02-09T17:29:13.411Z,-0.59
2023-02-09T17:31:52.942Z,-0.63
2023-02-09T17:34:27.198Z,-0.68
2023-02-09T17:36:54.465Z,-0.71
2023-02-09T17:39:21.568Z,-0.75
2023-02-09T17:41:50.081Z,-0.79
2023-02-09T17:44:29.018Z,-0.81
2023-02-09T17:47:03.494Z,-0.84
2023-02-09T17:49:30.471Z,-0.86
2023-02-09T17:51:57.496Z,-0.89
2023-02-09T17:54:24.563Z,-0.92
2023-02-09T17:56:51.655Z,-0.95
2023-02-09T17:59:20.353Z,-0.98
2023-02-09T18:01:50.507Z,-1.02
2023-02-09T18:04:26.861Z,-1.05
2023-02-09T18:06:56.040Z,-1.08
2023-02-09T18:09:44.890Z,-1.10
2023-02-09T18:12:19.743Z,-1.13
2023-02-09T18:14:47.000Z,-1.16
2023-02-09T18:17:17.331Z,-1.18
2023-02-09T18:19:44.353Z,-1.20
2023-02-09T18:22:17.015Z,-1.22
2023-02-09T18:25:00.235Z,-1.25
2023-02-09T18:27:27.498Z,-1.25
2023-02-09T18:29:55.381Z,-1.27
2023-02-09T18:32:25.812Z,-1.29
2023-02-09T18:34:52.792Z,-1.30
2023-02-09T18:37:19.919Z,-1.32
2023-02-09T18:39:47.807Z,-1.34
2023-02-09T18:42:35.493Z,-1.35
2023-02-09T18:45:03.029Z,-1.36
2023-02-09T18:47:50.583Z,-1.37
2023-02-09T18:50:28.953Z,-1.38
2023-02-09T18:52:58.044Z,-1.39
2023-02-09T18:55:29.459Z,-1.40
2023-02-09T18:57:57.084Z,-1.40
2023-02-09T19:00:24.967Z,-1.41
2023-02-09T19:03:02.953Z,-1.42
2023-02-09T19:05:32.231Z,-1.43
2023-02-09T19:08:01.933Z,-1.43
2023-02-09T19:10:30.702Z,-1.43
2023-02-09T19:12:57.965Z,-1.44
2023-02-09T19:15:26.051Z,-1.44
2023-02-09T19:17:55.181Z,-1.45
2023-02-09T19:20:27.122Z,-1.46
2023-02-09T19:22:55.597Z,-1.47
2023-02-09T19:25:28.148Z,-1.48
2023-02-09T19:27:56.100Z,-1.50
2023-02-09T19:30:30.700Z,-1.49
2023-02-09T19:33:01.285Z,-1.49
2023-02-09T19:35:39.575Z,-1.48
2023-02-09T19:38:06.609Z,-1.49
2023-02-09T19:40:41.024Z,-1.49
2023-02-09T19:43:12.481Z,-1.50
2023-02-09T19:45:39.532Z,-1.49
2023-02-09T19:48:08.190Z,-1.49
2023-02-09T19:50:36.700Z,-1.48
2023-02-09T19:53:03.911Z,-1.47
2023-02-09T19:55:52.517Z,-1.47
2023-02-09T19:58:21.427Z,-1.47
2023-02-09T20:00:58.688Z,-1.47
2023-02-09T20:03:26.003Z,-1.48
2023-02-09T20:06:15.205Z,-1.47
2023-02-09T20:08:43.150Z,-1.49
2023-02-09T20:11:12.840Z,-1.49
2023-02-09T20:13:40.617Z,-1.52
2023-02-09T20:16:12.534Z,-1.51
2023-02-09T20:18:43.615Z,-1.51
2023-02-09T20:21:12.958Z,-1.51
2023-02-09T20:23:40.131Z,-1.48
2023-02-09T20:26:14.288Z,-1.48
2023-02-09T20:28:43.791Z,-1.47
2023-02-09T20:31:11.567Z,-1.48
2023-02-09T20:33:40.461Z,-1.46
2023-02-09T20:36:10.228Z,-1.44
2023-02-09T20:38:38.770Z,-1.41
2023-02-09T20:41:10.968Z,-1.38
2023-02-09T20:44:06.307Z,-1.36
2023-02-09T20:46:54.245Z,-1.33
2023-02-09T20:49:21.781Z,-1.30
2023-02-09T20:51:48.896Z,-1.27
2023-02-09T20:54:17.903Z,-1.25
2023-02-09T20:56:45.033Z,-1.23
2023-02-09T20:59:12.737Z,-1.18
2023-02-09T21:01:41.677Z,-1.14
2023-02-09T21:04:09.696Z,-1.10
2023-02-09T21:06:38.151Z,-1.06
2023-02-09T21:09:05.712Z,-1.01
2023-02-09T21:11:32.810Z,-0.97
2023-02-09T21:14:01.334Z,-0.92
2023-02-09T21:16:32.175Z,-0.89
2023-02-09T21:18:59.629Z,-0.86
2023-02-09T21:21:27.641Z,-0.84
2023-02-09T21:23:54.846Z,-0.81
2023-02-09T21:26:24.615Z,-0.79
2023-02-09T21:28:52.574Z,-0.78
2023-02-09T21:31:23.162Z,-0.77
2023-02-09T21:33:52.641Z,-0.77
2023-02-09T21:36:22.277Z,-0.77
2023-02-09T21:38:49.875Z,-0.80
2023-02-09T21:41:38.123Z,-0.82
2023-02-09T21:44:05.939Z,-0.82
2023-02-09T21:46:33.382Z,-0.82
2023-02-09T21:49:00.418Z,-0.82
2023-02-09T21:51:28.035Z,-0.81
2023-02-09T21:53:55.875Z,-0.79
2023-02-09T21:56:23.316Z,-0.80
2023-02-09T21:58:50.734Z,-0.81
2023-02-09T22:01:18.277Z,-0.82
2023-02-09T22:03:48.793Z,-0.82
2023-02-09T22:06:16.586Z,-0.81
2023-02-09T22:08:43.500Z,-0.81
2023-02-09T22:11:13.976Z,-0.82
2023-02-09T22:13:41.091Z,-0.82
2023-02-09T22:16:11.075Z,-0.84
2023-02-09T22:18:38.527Z,-0.86
2023-02-09T22:21:09.005Z,-0.86
2023-02-09T22:23:36.156Z,-0.87
2023-02-09T22:26:05.706Z,-0.89
2023-02-09T22:28:43.521Z,-0.92
2023-02-09T22:31:12.798Z,-0.93
2023-02-09T22:33:40.272Z,-0.93
2023-02-09T22:36:27.636Z,-0.95
2023-02-09T22:39:14.747Z,-0.96
2023-02-09T22:41:51.011Z,-0.99
2023-02-09T22:44:20.360Z,-1.01
2023-02-09T22:46:50.831Z,-1.00
2023-02-09T22:49:20.430Z,-1.01
2023-02-09T22:51:49.385Z,-1.01
2023-02-09T22:54:18.711Z,-1.00
2023-02-09T22:56:46.387Z,-1.00
2023-02-09T22:59:15.400Z,-1.01
2023-02-09T23:01:42.954Z,-1.00
2023-02-09T23:04:14.221Z,-0.99
2023-02-09T23:06:50.644Z,-0.99
2023-02-09T23:09:17.847Z,-0.99
2023-02-09T23:11:45.347Z,-0.99
2023-02-09T23:14:12.671Z,-1.00
2023-02-09T23:16:49.721Z,-1.01
2023-02-09T23:19:19.187Z,-1.02
2023-02-09T23:21:48.082Z,-1.03
2023-02-09T23:24:16.613Z,-1.01
2023-02-09T23:26:45.629Z,-1.02
2023-02-09T23:29:15.088Z,-1.02
2023-02-09T23:31:42.587Z,-1.04
2023-02-09T23:34:12.929Z,-1.04
2023-02-09T23:36:39.813Z,-1.05
2023-02-09T23:39:08.237Z,-1.05
2023-02-09T23:41:36.556Z,-1.08
2023-02-09T23:44:04.148Z,-1.08
2023-02-09T23:46:31.701Z,-1.10
2023-02-09T23:48:59.308Z,-1.11
2023-02-09T23:51:28.699Z,-1.12
2023-02-09T23:53:57.298Z,-1.12
2023-02-09T23:56:24.878Z,-1.13
2023-02-09T23:58:53.757Z,-1.14
